Kanab, UT

2:10 PM MDT on October 25, 2014 (GMT -0600)
RAWS BUCKSKIN MTN AZ US | Change Station
CLOSE
Current Station
Personal Weather Station
Location: Kanab, UT
Elevation: 6399 ft
Nearby Weather Stations

Elev 6399 ft 36.92 °N, 112.20 °W | Updated 37 minutes ago

Clear
Clear
72 °F
Feels Like 76 °F
N
10
Wind Variable Wind from SW
Gusts 23.0 mph

Today
High -- | Low -- °F
--% Chance of Precip.
Yesterday
High -- | Low -- °F
Precip. -- in
7:45 AM 6:38 PM
Waxing Crescent, 4% visible
Pressure 30.02 in
Visibility 10.0 miles
Clouds Clear
Heat Index 76 °F
Dew Point 37 °F
Humidity 28%
Rainfall 0.00 in
Snow Depth Not available.
UV 5 out of 12
Pollen 4.40 out of 12
Air Quality Not available.
Flu Activity Sporadic
METAR KPGA 251953Z AUTO 01005KT 10SM CLR 23/01 A3016 RMK AO2 SLP165 T02280011

More Conditions Fewer Conditions

Pressure 30.02 in
Visibility 10.0 miles
Clouds Clear
Heat Index 76 °F
Dew Point 37 °F
Humidity 28%
Rainfall 0.00 in
Snow Depth Not available.
UV 5 out of 12
Pollen 4.40 out of 12
Air Quality Not available.
Flu Activity Sporadic
METAR KPGA 251953Z AUTO 01005KT 10SM CLR 23/01 A3016 RMK AO2 SLP165 T02280011

More Conditions Fewer Conditions

10-Day Weather Forecast

Almanac

Astronomy

Oct. 25, 2014 Rise Set
Actual Time 7:45 AM MDT 6:38 PM MDT
Civil Twilight 7:19 AM MDT 7:05 PM MDT
Nautical Twilight 6:48 AM MDT 7:35 PM MDT
Astronomical Twilight 6:18 AM MDT 8:05 PM MDT
Moon 9:26 AM MDT 8:06 PM MDT
Length of Visible Light 11h 46m
Length of Day
10h 52m
Tomorrow will be 2m 11s shorter.
Waxing Crescent, 4% of the Moon is Illuminated
Today
Waxing Crescent
Oct 30
First Quarter
Nov 6
Full
Nov 14
Last Quarter
Nov 22
New

Today's Extremes

State Highs State Lows

Community

WunderPhotos

Upload Photos

1,764,976 photos uploaded!

Nearby

Snow Depth

Station Depth Elevation
Agua Canyon 0 in 8900 ft
Long Valley Jct 1 in 7360 ft
Big Flat 0 in 10290 ft
Merchant Valley 0 in 8750 ft
Farnsworth Lake 0 in 9600 ft

Earthquake Activity

City Distance Mag. Time & Date
No recent earthquake activity has been reported nearby.
Minimum magnitude displayed is 2.5.

Coastal Water Temperatures

Place Temperature
No Stations Reporting

Nearby Weather Stations